Camano Island, WA (98282)

11:37 PM PDT on July 05, 2015 (GMT -0700)
Indian Beach | | Change Station
CLOSE
Current Station
Personal Weather Station
Location: Camano Island, WA
Elevation: 135 ft
Nearby Weather Stations

Elev 135 ft 48.17 °N, 122.52 °W | Updated 0 second ago

Partly Cloudy
Partly Cloudy
66.0 °F
Feels Like 66.0 °F
N
2.0
Wind Variable Wind from NW
Gusts 3.0 mph

Today
High -- | Low -- °F
--% Chance of Precip.
Yesterday
High -- | Low -- °F
Precip. -- in
5:16 AM 9:12 PM
Waning Gibbous, 78% visible
Pressure 29.91 in
Visibility 10.0 miles
Clouds Mostly Cloudy 25000 ft
Dew Point 54 °F
Humidity 64%
Rainfall 0.00 in
Snow Depth Not available.
UV 0 out of 12
Pollen 6.10 out of 12
Air Quality Not available.
Flu Activity Not available.
METAR KNUW 060556Z 24003KT 10SM BKN250 18/09 A2991 RMK AO2 SLP128 T01830094 10256 20172 53013 VISNO $

More Conditions Fewer Conditions

Pressure 29.91 in
Visibility 10.0 miles
Clouds Mostly Cloudy 25000 ft
Dew Point 54 °F
Humidity 64%
Rainfall 0.00 in
Snow Depth Not available.
UV 0 out of 12
Pollen 6.10 out of 12
Air Quality Not available.
Flu Activity Not available.
METAR KNUW 060556Z 24003KT 10SM BKN250 18/09 A2991 RMK AO2 SLP128 T01830094 10256 20172 53013 VISNO $

More Conditions Fewer Conditions

10-Day Weather Forecast

×

Almanac

Astronomy

Jul. 05, 2015 Rise Set
Actual Time
Civil Twilight
Nautical Twilight
Astronomical Twilight
Moon
Length of Visible Light
Length of Day
Tomorrow will be .
, % of the Moon is Illuminated

Today's Extremes

State Highs State Lows

Community

WunderPhotos

Upload Photos

1,835,502 photos uploaded!

WunderBlogs® & News

Nearby

Air Quality

  Air Quality AQ Index Pollutant
Not available.

Snow Depth

Station Depth Elevation

Earthquake Activity

City Distance Mag. Time & Date
Minimum magnitude displayed is 2.5.

Coastal Water Temperatures

Place Temperature

Stations

Nearby Weather Stations

Station Location Temp. Windchill Dew Point Humidity Wind Precip. Elev Updated Type